createdAt,value
2023-01-01T00:01:43.329Z,62.39
2023-01-01T00:04:15.350Z,62.43
2023-01-01T00:06:42.573Z,62.57
2023-01-01T00:09:28.119Z,62.69
2023-01-01T00:11:54.821Z,62.43
2023-01-01T00:14:21.599Z,62.63
2023-01-01T00:16:49.626Z,62.52
2023-01-01T00:19:16.328Z,62.87
2023-01-01T00:21:42.923Z,63.56
2023-01-01T00:24:09.590Z,63.23
2023-01-01T00:26:36.164Z,63.60
2023-01-01T00:29:03.757Z,63.80
2023-01-01T00:31:30.947Z,64.07
2023-01-01T00:33:57.899Z,63.92
2023-01-01T00:36:26.689Z,63.77
2023-01-01T00:38:53.638Z,63.53
2023-01-01T00:41:20.754Z,63.39
2023-01-01T00:43:47.971Z,63.64
2023-01-01T00:46:15.342Z,63.89
2023-01-01T00:48:42.350Z,63.30
2023-01-01T00:51:09.458Z,63.04
2023-01-01T00:53:36.158Z,62.95
2023-01-01T00:56:03.575Z,63.04
2023-01-01T00:58:30.335Z,63.12
2023-01-01T01:00:57.256Z,62.69
2023-01-01T01:03:31.058Z,62.51
2023-01-01T01:06:10.230Z,62.33
2023-01-01T01:08:39.393Z,62.02
2023-01-01T01:11:10.462Z,62.05
2023-01-01T01:13:37.561Z,61.74
2023-01-01T01:16:25.221Z,61.54
2023-01-01T01:18:53.939Z,61.38
2023-01-01T01:21:22.848Z,61.41
2023-01-01T01:23:50.616Z,61.12
2023-01-01T01:26:18.849Z,60.72
2023-01-01T01:28:49.761Z,60.98
2023-01-01T01:31:18.639Z,60.88
2023-01-01T01:33:46.341Z,61.19
2023-01-01T01:36:14.038Z,60.91
2023-01-01T01:38:41.620Z,61.33
2023-01-01T01:41:16.316Z,61.30
2023-01-01T01:44:07.468Z,61.19
2023-01-01T01:46:43.633Z,61.12
2023-01-01T01:49:36.283Z,61.50
2023-01-01T01:52:02.874Z,61.51
2023-01-01T01:54:30.341Z,61.51
2023-01-01T01:57:04.424Z,60.79
2023-01-01T01:59:36.421Z,61.09
2023-01-01T02:02:03.069Z,61.02
2023-01-01T02:04:29.875Z,60.58
2023-01-01T02:06:57.049Z,60.91
2023-01-01T02:09:23.861Z,60.78
2023-01-01T02:11:50.452Z,61.13
2023-01-01T02:14:17.007Z,60.94
2023-01-01T02:16:46.500Z,60.77
2023-01-01T02:19:28.342Z,60.71
2023-01-01T02:21:58.058Z,60.56
2023-01-01T02:24:54.808Z,60.07
2023-01-01T02:27:29.075Z,59.87
2023-01-01T02:30:02.446Z,60.26
2023-01-01T02:32:50.040Z,59.77
2023-01-01T02:35:34.917Z,60.07
2023-01-01T02:38:25.543Z,59.84
2023-01-01T02:41:02.077Z,59.81
2023-01-01T02:43:29.140Z,59.44
2023-01-01T02:45:56.495Z,59.64
2023-01-01T02:48:49.014Z,59.40
2023-01-01T02:51:34.051Z,59.66
2023-01-01T02:54:37.816Z,59.61
2023-01-01T02:57:28.809Z,59.32
2023-01-01T03:00:28.078Z,59.45
2023-01-01T03:03:03.866Z,59.37
2023-01-01T03:06:17.088Z,59.66
2023-01-01T03:08:50.175Z,59.56
2023-01-01T03:11:20.094Z,59.91
2023-01-01T03:14:09.707Z,59.62
2023-01-01T03:16:39.317Z,59.50
2023-01-01T03:19:12.077Z,59.56
2023-01-01T03:22:20.600Z,60.12
2023-01-01T03:25:16.610Z,59.91
2023-01-01T03:28:09.421Z,59.72
2023-01-01T03:30:38.676Z,59.96
2023-01-01T03:33:13.226Z,59.75
2023-01-01T03:35:59.598Z,59.51
2023-01-01T03:38:49.534Z,59.76
2023-01-01T03:41:27.024Z,59.56
2023-01-01T03:44:01.463Z,60.01
2023-01-01T03:46:32.268Z,60.06
2023-01-01T03:49:04.045Z,60.15
2023-01-01T03:51:52.584Z,59.88
2023-01-01T03:54:32.864Z,59.94
2023-01-01T03:57:09.127Z,60.46
2023-01-01T04:00:02.105Z,60.59
2023-01-01T04:02:35.038Z,60.23
2023-01-01T04:05:05.001Z,60.56
2023-01-01T04:07:32.473Z,60.48
2023-01-01T04:10:02.176Z,60.77
2023-01-01T04:12:30.563Z,60.73
2023-01-01T04:14:57.132Z,60.40
2023-01-01T04:17:23.725Z,60.98
2023-01-01T04:19:54.987Z,61.01
2023-01-01T04:22:23.434Z,61.28
2023-01-01T04:24:50.513Z,61.31
2023-01-01T04:27:17.096Z,60.71
2023-01-01T04:29:43.658Z,60.98
2023-01-01T04:32:10.241Z,60.98
2023-01-01T04:34:36.777Z,61.19
2023-01-01T04:37:05.825Z,61.17
2023-01-01T04:39:36.291Z,61.07
2023-01-01T04:42:02.857Z,61.25
2023-01-01T04:44:29.542Z,60.76
2023-01-01T04:47:00.104Z,61.08
2023-01-01T04:49:27.565Z,60.78
2023-01-01T04:51:54.214Z,61.19
2023-01-01T04:54:20.814Z,61.11
2023-01-01T04:56:47.349Z,61.13
2023-01-01T04:59:13.918Z,60.97
2023-01-01T05:01:40.562Z,61.16
2023-01-01T05:04:07.148Z,60.97
2023-01-01T05:06:33.833Z,60.90
2023-01-01T05:09:01.258Z,61.39
2023-01-01T05:11:30.079Z,61.49
2023-01-01T05:13:59.404Z,61.41
2023-01-01T05:16:28.461Z,61.23
2023-01-01T05:18:55.667Z,61.53
2023-01-01T05:21:24.924Z,61.70
2023-01-01T05:23:56.376Z,61.44
2023-01-01T05:26:25.373Z,61.53
2023-01-01T05:28:51.957Z,61.62
2023-01-01T05:31:21.157Z,61.68
2023-01-01T05:33:48.318Z,61.93
2023-01-01T05:36:21.358Z,61.92
2023-01-01T05:38:48.146Z,61.62
2023-01-01T05:41:16.350Z,61.56
2023-01-01T05:43:43.307Z,61.97
2023-01-01T05:46:18.986Z,61.62
2023-01-01T05:48:46.045Z,61.66
2023-01-01T05:51:21.556Z,62.25
2023-01-01T05:53:48.795Z,62.24
2023-01-01T05:56:16.890Z,62.35
2023-01-01T05:58:44.757Z,62.14
2023-01-01T06:01:20.800Z,62.34
2023-01-01T06:03:50.289Z,62.12
2023-01-01T06:06:25.799Z,61.76
2023-01-01T06:08:54.806Z,61.46
2023-01-01T06:11:21.956Z,61.38
2023-01-01T06:13:51.649Z,62.54
2023-01-01T06:16:18.261Z,62.57
2023-01-01T06:18:45.159Z,62.55
2023-01-01T06:21:17.284Z,62.19
2023-01-01T06:23:44.094Z,61.86
2023-01-01T06:26:13.434Z,61.84
2023-01-01T06:28:40.552Z,61.37
2023-01-01T06:31:09.273Z,62.83
2023-01-01T06:33:36.674Z,62.67
2023-01-01T06:36:05.928Z,63.25
2023-01-01T06:38:34.791Z,63.04
2023-01-01T06:41:03.748Z,61.85
2023-01-01T06:43:32.279Z,61.93
2023-01-01T06:46:29.609Z,62.39
2023-01-01T06:49:02.200Z,61.44
2023-01-01T06:51:39.243Z,61.31
2023-01-01T06:54:06.757Z,61.13
2023-01-01T06:56:33.709Z,61.55
2023-01-01T06:59:00.563Z,61.25
2023-01-01T07:01:31.995Z,62.01
2023-01-01T07:04:04.307Z,62.03
2023-01-01T07:06:32.468Z,61.59
2023-01-01T07:08:59.083Z,62.25
2023-01-01T07:11:26.218Z,60.82
2023-01-01T07:13:53.143Z,61.55
2023-01-01T07:16:20.295Z,61.21
2023-01-01T07:18:49.132Z,61.41
2023-01-01T07:21:30.152Z,61.27
2023-01-01T07:23:58.506Z,60.85
2023-01-01T07:26:26.845Z,60.80
2023-01-01T07:28:53.501Z,60.89
2023-01-01T07:31:20.156Z,61.08
2023-01-01T07:33:46.808Z,61.35
2023-01-01T07:36:13.699Z,61.68
2023-01-01T07:38:40.494Z,61.17
2023-01-01T07:41:07.514Z,61.61
2023-01-01T07:43:34.144Z,60.85
2023-01-01T07:46:01.533Z,61.53
2023-01-01T07:48:29.879Z,61.51
2023-01-01T07:50:58.837Z,60.29
2023-01-01T07:53:25.534Z,60.63
2023-01-01T07:55:52.184Z,60.44
2023-01-01T07:58:18.840Z,60.58
2023-01-01T08:00:47.797Z,60.25
2023-01-01T08:03:15.261Z,60.20
2023-01-01T08:05:41.948Z,60.26
2023-01-01T08:08:09.429Z,60.44
2023-01-01T08:10:36.123Z,60.03
2023-01-01T08:13:04.900Z,60.10
2023-01-01T08:15:32.154Z,60.12
2023-01-01T08:18:03.850Z,59.59
2023-01-01T08:20:31.412Z,59.67
2023-01-01T08:23:02.973Z,60.26
2023-01-01T08:25:33.126Z,60.19
2023-01-01T08:27:59.692Z,60.47
2023-01-01T08:30:26.365Z,60.25
2023-01-01T08:32:53.064Z,60.45
2023-01-01T08:35:19.669Z,60.47
2023-01-01T08:37:46.267Z,60.22
2023-01-01T08:40:13.705Z,60.06
2023-01-01T08:42:40.417Z,59.71
2023-01-01T08:45:07.719Z,59.94
2023-01-01T08:47:34.486Z,60.06
2023-01-01T08:50:01.109Z,60.64
2023-01-01T08:52:27.822Z,59.98
2023-01-01T08:54:54.414Z,59.77
2023-01-01T08:57:21.044Z,60.38
2023-01-01T08:59:47.589Z,59.98
2023-01-01T09:02:14.319Z,60.42
2023-01-01T09:04:41.025Z,60.46
2023-01-01T09:07:07.649Z,59.95
2023-01-01T09:09:34.408Z,60.32
2023-01-01T09:12:06.071Z,59.64
2023-01-01T09:14:34.107Z,60.10
2023-01-01T09:17:01.071Z,60.06
2023-01-01T09:19:28.084Z,58.77
2023-01-01T09:21:54.839Z,59.40
2023-01-01T09:24:21.563Z,60.10
2023-01-01T09:26:48.267Z,59.49
2023-01-01T09:29:18.713Z,58.98
2023-01-01T09:31:45.735Z,59.02
2023-01-01T09:34:12.780Z,58.87
2023-01-01T09:36:39.706Z,58.70
2023-01-01T09:39:06.579Z,58.67
2023-01-01T09:42:18.070Z,59.20
2023-01-01T09:45:11.640Z,59.19
2023-01-01T09:47:45.474Z,58.52
2023-01-01T09:50:43.745Z,58.32
2023-01-01T09:53:17.850Z,58.36
2023-01-01T09:55:55.365Z,58.29
2023-01-01T09:58:26.546Z,58.61
2023-01-01T10:00:56.219Z,58.39
2023-01-01T10:03:32.248Z,58.74
2023-01-01T10:06:20.786Z,59.07
2023-01-01T10:08:56.805Z,58.21
2023-01-01T10:11:26.596Z,58.32
2023-01-01T10:13:58.464Z,59.53
2023-01-01T10:16:42.390Z,59.03
2023-01-01T10:19:31.759Z,58.65
2023-01-01T10:22:09.453Z,58.62
2023-01-01T10:25:20.306Z,58.91
2023-01-01T10:27:59.834Z,57.99
2023-01-01T10:30:28.330Z,58.00
2023-01-01T10:32:56.204Z,58.23
2023-01-01T10:35:34.234Z,58.25
2023-01-01T10:38:02.440Z,59.28
2023-01-01T10:40:30.173Z,58.64
2023-01-01T10:42:59.284Z,58.88
2023-01-01T10:45:35.427Z,58.93
2023-01-01T10:48:16.258Z,58.69
2023-01-01T10:51:06.152Z,58.88
2023-01-01T10:53:41.259Z,58.25
2023-01-01T10:56:12.705Z,58.34
2023-01-01T10:58:59.541Z,58.11
2023-01-01T11:01:34.952Z,59.97
2023-01-01T11:04:13.720Z,58.69
2023-01-01T11:06:48.134Z,58.43
2023-01-01T11:09:20.604Z,59.58
2023-01-01T11:11:54.296Z,58.40
2023-01-01T11:14:25.693Z,57.36
2023-01-01T11:16:53.714Z,57.88
2023-01-01T11:19:29.104Z,58.07
2023-01-01T11:21:55.768Z,59.27
2023-01-01T11:24:25.791Z,58.59
2023-01-01T11:26:55.239Z,57.74
2023-01-01T11:29:29.623Z,57.99
2023-01-01T11:31:58.335Z,58.43
2023-01-01T11:34:27.860Z,60.11
2023-01-01T11:37:26.300Z,57.87
2023-01-01T11:39:55.538Z,58.15
2023-01-01T11:42:26.084Z,58.61
2023-01-01T11:45:00.732Z,58.74
2023-01-01T11:47:38.459Z,59.72
2023-01-01T11:50:14.003Z,58.89
2023-01-01T11:52:43.630Z,58.52
2023-01-01T11:55:24.369Z,58.85
2023-01-01T11:58:13.019Z,58.30
2023-01-01T12:00:43.006Z,58.49
2023-01-01T12:03:15.255Z,58.55
2023-01-01T12:05:50.619Z,58.88
2023-01-01T12:08:28.692Z,58.86
2023-01-01T12:11:06.268Z,58.41
2023-01-01T12:13:44.189Z,59.07
2023-01-01T12:16:18.583Z,58.48
2023-01-01T12:18:58.565Z,58.21
2023-01-01T12:21:29.016Z,57.73
2023-01-01T12:23:56.111Z,58.73
2023-01-01T12:26:43.869Z,58.45
2023-01-01T12:29:13.419Z,58.93
2023-01-01T12:32:33.224Z,59.15
2023-01-01T12:35:18.323Z,58.89
2023-01-01T12:38:03.577Z,59.33
2023-01-01T12:40:59.352Z,59.44
2023-01-01T12:43:52.528Z,58.81
2023-01-01T12:46:21.964Z,58.79
2023-01-01T12:49:01.779Z,59.11
2023-01-01T12:51:37.304Z,58.96
2023-01-01T12:54:40.809Z,59.51
2023-01-01T12:57:19.470Z,59.08
2023-01-01T12:59:49.853Z,59.35
2023-01-01T13:02:21.964Z,59.19
2023-01-01T13:04:53.035Z,59.06
2023-01-01T13:07:50.243Z,59.35
2023-01-01T13:10:16.858Z,59.47
2023-01-01T13:12:43.783Z,59.43
2023-01-01T13:15:52.584Z,59.82
2023-01-01T13:18:22.952Z,59.64
2023-01-01T13:21:30.031Z,59.68
2023-01-01T13:24:24.499Z,60.09
2023-01-01T13:26:51.515Z,60.03
2023-01-01T13:29:18.048Z,59.76
2023-01-01T13:31:44.684Z,59.73
2023-01-01T13:34:42.792Z,59.71
2023-01-01T13:37:15.275Z,59.75
2023-01-01T13:40:01.520Z,60.13
2023-01-01T13:42:43.596Z,60.28
2023-01-01T13:45:44.171Z,60.23
2023-01-01T13:48:19.764Z,60.09
2023-01-01T13:51:11.720Z,60.33
2023-01-01T13:54:05.647Z,60.16
2023-01-01T13:56:47.583Z,60.90
2023-01-01T13:59:38.667Z,60.18
2023-01-01T14:02:46.862Z,60.70
2023-01-01T14:05:30.134Z,60.58
2023-01-01T14:07:56.728Z,60.82
2023-01-01T14:10:33.030Z,60.62
2023-01-01T14:13:05.677Z,60.75
2023-01-01T14:15:38.040Z,60.83
2023-01-01T14:18:10.261Z,60.67
2023-01-01T14:20:44.988Z,61.38
2023-01-01T14:23:18.790Z,60.86
2023-01-01T14:25:46.253Z,61.35
2023-01-01T14:28:20.271Z,61.19
2023-01-01T14:30:47.326Z,62.13
2023-01-01T14:33:31.800Z,62.62
2023-01-01T14:35:59.567Z,62.78
2023-01-01T14:38:27.148Z,62.94
2023-01-01T14:41:24.755Z,63.37
2023-01-01T14:43:54.895Z,63.44
2023-01-01T14:46:25.313Z,63.67
2023-01-01T14:48:55.169Z,63.89
2023-01-01T14:51:25.328Z,64.33
2023-01-01T14:53:54.095Z,64.59
2023-01-01T14:56:29.177Z,64.37
2023-01-01T14:59:08.256Z,64.61
2023-01-01T15:01:35.173Z,65.22
2023-01-01T15:04:15.866Z,65.14
2023-01-01T15:06:42.433Z,65.44
2023-01-01T15:09:16.041Z,65.96
2023-01-01T15:11:43.159Z,66.33
2023-01-01T15:14:31.451Z,66.28
2023-01-01T15:17:18.828Z,66.75
2023-01-01T15:19:47.658Z,66.87
2023-01-01T15:22:36.347Z,66.84
2023-01-01T15:25:03.738Z,67.14
2023-01-01T15:27:36.808Z,67.29
2023-01-01T15:30:13.570Z,67.76
2023-01-01T15:32:41.041Z,68.09
2023-01-01T15:35:24.874Z,67.83
2023-01-01T15:38:00.774Z,68.36
2023-01-01T15:40:27.305Z,68.30
2023-01-01T15:42:56.909Z,68.51
2023-01-01T15:45:27.492Z,68.55
2023-01-01T15:47:58.003Z,68.48
2023-01-01T15:50:25.939Z,69.01
2023-01-01T15:52:59.176Z,69.31
2023-01-01T15:55:29.484Z,69.46
2023-01-01T15:57:57.099Z,69.62
2023-01-01T16:00:30.445Z,69.63
2023-01-01T16:03:02.028Z,69.99
2023-01-01T16:05:29.071Z,70.23
2023-01-01T16:08:05.155Z,69.90
2023-01-01T16:10:32.395Z,70.35
2023-01-01T16:12:59.292Z,70.32
2023-01-01T16:15:26.814Z,71.08
2023-01-01T16:17:53.548Z,71.24
2023-01-01T16:20:22.492Z,71.14
2023-01-01T16:22:49.155Z,71.66
2023-01-01T16:25:21.219Z,71.30
2023-01-01T16:27:48.015Z,71.56
2023-01-01T16:30:15.432Z,71.62
2023-01-01T16:32:42.127Z,71.63
2023-01-01T16:35:13.387Z,71.74
2023-01-01T16:37:40.024Z,71.70
2023-01-01T16:40:07.669Z,72.01
2023-01-01T16:42:34.213Z,72.30
2023-01-01T16:45:00.785Z,72.13
2023-01-01T16:47:27.383Z,72.31
2023-01-01T16:49:53.965Z,72.13
2023-01-01T16:52:20.557Z,72.71
2023-01-01T16:54:47.344Z,71.75
2023-01-01T16:57:13.961Z,72.38
2023-01-01T16:59:40.554Z,72.57
2023-01-01T17:02:11.285Z,72.22
2023-01-01T17:04:38.056Z,72.97
2023-01-01T17:07:04.663Z,72.88
2023-01-01T17:09:31.218Z,73.06
2023-01-01T17:11:57.805Z,72.67
2023-01-01T17:14:24.481Z,72.54
2023-01-01T17:16:53.604Z,72.29
2023-01-01T17:19:20.232Z,72.83
2023-01-01T17:21:48.184Z,72.52
2023-01-01T17:24:16.288Z,72.51
2023-01-01T17:26:42.982Z,72.39
2023-01-01T17:29:09.924Z,72.70
2023-01-01T17:31:36.511Z,72.99
2023-01-01T17:34:03.422Z,72.93
2023-01-01T17:36:30.460Z,72.87
2023-01-01T17:38:57.341Z,72.51
2023-01-01T17:41:24.406Z,72.71
2023-01-01T17:43:51.693Z,72.84
2023-01-01T17:46:21.384Z,72.50
2023-01-01T17:48:48.912Z,72.35
2023-01-01T17:51:17.253Z,73.44
2023-01-01T17:53:44.225Z,72.90
2023-01-01T17:56:13.033Z,73.24
2023-01-01T17:58:40.699Z,72.97
2023-01-01T18:01:13.316Z,72.90
2023-01-01T18:03:41.269Z,73.38
2023-01-01T18:06:08.006Z,73.28
2023-01-01T18:08:34.706Z,73.25
2023-01-01T18:11:01.403Z,72.64
2023-01-01T18:13:27.997Z,73.14
2023-01-01T18:15:54.831Z,73.30
2023-01-01T18:18:21.437Z,73.61
2023-01-01T18:51:37.540Z,71.91
2023-01-01T18:54:12.984Z,72.35
2023-01-01T18:56:39.966Z,71.89
2023-01-01T18:59:20.873Z,71.97
2023-01-01T19:01:48.497Z,71.75
2023-01-01T19:04:15.946Z,72.16
2023-01-01T19:06:42.665Z,71.82
2023-01-01T19:09:24.312Z,72.06
2023-01-01T19:11:53.569Z,72.76
2023-01-01T19:45:22.177Z,73.25
2023-01-01T19:47:48.792Z,72.47
2023-01-01T19:50:15.775Z,72.57
2023-01-01T19:52:42.496Z,72.44
2023-01-01T19:55:09.565Z,71.10
2023-01-01T19:57:36.228Z,69.39
2023-01-01T20:00:02.872Z,67.73
2023-01-01T20:02:46.954Z,66.82
2023-01-01T20:05:14.184Z,64.53
2023-01-01T20:07:40.862Z,64.47
2023-01-01T20:10:07.842Z,63.15
2023-01-01T20:12:34.501Z,62.26
2023-01-01T20:15:01.123Z,61.57
2023-01-01T20:17:27.732Z,61.49
2023-01-01T20:19:54.965Z,61.35
2023-01-01T20:22:22.126Z,61.14
2023-01-01T20:24:48.747Z,61.22
2023-01-01T20:27:24.276Z,59.88
2023-01-01T20:29:51.482Z,59.78
2023-01-01T20:32:18.183Z,60.16
2023-01-01T20:34:44.942Z,60.33
2023-01-01T20:37:30.794Z,60.12
2023-01-01T20:39:57.371Z,60.24
2023-01-01T20:42:24.080Z,60.08
2023-01-01T20:44:50.667Z,59.30
2023-01-01T20:47:17.238Z,59.38
2023-01-01T20:49:44.024Z,59.12
2023-01-01T20:52:10.764Z,58.90
2023-01-01T20:54:37.461Z,58.99
2023-01-01T20:57:04.316Z,58.81
2023-01-01T20:59:36.769Z,59.10
2023-01-01T21:02:08.836Z,58.52
2023-01-01T21:04:38.713Z,58.75
2023-01-01T21:07:07.916Z,59.00
2023-01-01T21:09:34.560Z,59.25
2023-01-01T21:12:02.107Z,58.62
2023-01-01T21:14:28.756Z,58.50
2023-01-01T21:16:55.408Z,59.20
2023-01-01T21:19:26.674Z,59.01
2023-01-01T21:21:56.423Z,58.79
2023-01-01T21:24:34.486Z,59.00
2023-01-01T21:27:27.327Z,58.53
2023-01-01T21:29:57.385Z,58.35
2023-01-01T21:32:26.877Z,58.48
2023-01-01T21:34:55.413Z,58.43
2023-01-01T21:37:41.930Z,58.47
2023-01-01T21:40:30.874Z,58.87
2023-01-01T21:43:10.661Z,58.40
2023-01-01T21:45:46.804Z,58.53
2023-01-01T21:48:27.324Z,58.99
2023-01-01T21:50:55.013Z,58.35
2023-01-01T21:53:33.901Z,58.56
2023-01-01T21:56:17.163Z,58.34
2023-01-01T21:59:04.298Z,58.60
2023-01-01T22:01:38.599Z,58.16
2023-01-01T22:04:11.418Z,58.37
2023-01-01T22:06:46.574Z,58.15
2023-01-01T22:09:30.420Z,58.79
2023-01-01T22:12:18.993Z,57.96
2023-01-01T22:14:53.986Z,58.13
2023-01-01T22:17:34.977Z,58.29
2023-01-01T22:20:27.220Z,58.11
2023-01-01T22:22:58.896Z,58.08
2023-01-01T22:25:31.759Z,58.00
2023-01-01T22:28:14.250Z,58.58
2023-01-01T22:30:44.416Z,58.55
2023-01-01T22:33:19.252Z,58.41
2023-01-01T22:35:45.915Z,58.69
2023-01-01T22:38:18.478Z,58.47
2023-01-01T22:40:49.411Z,58.44
2023-01-01T22:43:18.903Z,58.04
2023-01-01T22:45:49.951Z,58.15
2023-01-01T22:48:26.917Z,57.98
2023-01-01T22:50:56.618Z,57.91
2023-01-01T22:53:23.168Z,57.53
2023-01-01T22:55:49.736Z,58.07
2023-01-01T22:58:16.423Z,57.62
2023-01-01T23:00:43.017Z,57.85
2023-01-01T23:03:09.723Z,57.79
2023-01-01T23:05:36.483Z,57.18
2023-01-01T23:08:03.055Z,57.35
2023-01-01T23:10:31.169Z,57.13
2023-01-01T23:12:58.306Z,57.52
2023-01-01T23:15:57.080Z,57.38
2023-01-01T23:18:23.704Z,57.04
2023-01-01T23:20:50.338Z,57.51
2023-01-01T23:23:16.925Z,57.62
2023-01-01T23:25:43.499Z,57.81
2023-01-01T23:28:10.449Z,57.33
2023-01-01T23:30:37.218Z,56.83
2023-01-01T23:33:04.203Z,56.92
2023-01-01T23:35:30.859Z,56.86
2023-01-01T23:37:57.692Z,56.70
2023-01-01T23:40:24.276Z,56.49
2023-01-01T23:42:50.839Z,56.39
2023-01-01T23:45:17.578Z,56.58
2023-01-01T23:47:44.361Z,56.69
2023-01-01T23:50:11.329Z,56.46
2023-01-01T23:52:38.476Z,56.50
2023-01-01T23:55:05.451Z,56.78
2023-01-01T23:57:32.026Z,56.50
2023-01-01T23:59:58.618Z,56.35
